Nekoma, Kansas
Current Conditions -  °F | °C
As of 8:35 PM on Saturday 22 Nov 2014 (Local Time) from KHYS Reporting Station
Overcast Overcast  
Wind Chill: 55°   Ceiling: 1200
Heat Index: 55°   Visibility: 10mi
Dew Point: 48°   Wind: 24mph
Humidity: 77%   Direction: 190°S
Pressure: 29.58"   Gusts: 29mph
Location:  38.47°N, 99.44°W
Report Text: KHYS 230235Z AUTO 19021G25KT 10SM OVC012 13/09 A2958 RMK AO1
Loading
Personal Weather Stations






























Interactive Weather Map New forecast layout! Learn more

10-Day Weather Forecast

Advertisements
Track Severe Weather on mobile